createdAt,value
2022-11-17T00:00:59.503Z,99.99
2022-11-17T00:01:59.367Z,99.99
2022-11-17T00:02:59.274Z,99.99
2022-11-17T00:03:59.310Z,99.99
2022-11-17T00:04:59.327Z,99.99
2022-11-17T00:05:59.277Z,99.99
2022-11-17T00:06:59.339Z,99.99
2022-11-17T00:07:59.239Z,99.99
2022-11-17T00:08:59.275Z,99.99
2022-11-17T00:09:59.263Z,99.99
2022-11-17T00:10:59.219Z,99.99
2022-11-17T00:11:59.203Z,99.99
2022-11-17T00:12:59.188Z,99.99
2022-11-17T00:13:59.883Z,99.99
2022-11-17T00:14:59.175Z,99.99
2022-11-17T00:15:59.156Z,99.99
2022-11-17T00:16:59.149Z,99.99
2022-11-17T00:18:00.751Z,99.99
2022-11-17T00:18:59.264Z,99.99
2022-11-17T00:19:59.117Z,99.99
2022-11-17T00:20:59.103Z,99.99
2022-11-17T00:21:59.094Z,99.99
2022-11-17T00:22:59.096Z,99.99
2022-11-17T00:23:59.102Z,99.99
2022-11-17T00:24:59.493Z,99.99
2022-11-17T00:25:59.026Z,99.99
2022-11-17T00:26:59.072Z,99.99
2022-11-17T00:27:59.026Z,99.99
2022-11-17T00:28:59.018Z,99.99
2022-11-17T00:29:59.001Z,99.99
2022-11-17T00:30:59.014Z,99.99
2022-11-17T00:31:58.999Z,99.99
2022-11-17T00:32:58.969Z,99.99
2022-11-17T00:33:59.010Z,99.99
2022-11-17T00:34:58.940Z,99.99
2022-11-17T00:35:59.005Z,99.99
2022-11-17T00:36:58.928Z,99.99
2022-11-17T00:37:58.919Z,99.99
2022-11-17T00:38:58.899Z,99.99
2022-11-17T00:40:00.931Z,99.99
2022-11-17T00:40:58.901Z,99.99
2022-11-17T00:41:58.861Z,99.99
2022-11-17T00:42:58.869Z,99.99
2022-11-17T00:43:59.686Z,99.99
2022-11-17T00:44:58.882Z,99.99
2022-11-17T00:45:58.834Z,99.99
2022-11-17T00:46:58.819Z,99.99
2022-11-17T00:47:59.394Z,99.99
2022-11-17T00:48:58.804Z,99.99
2022-11-17T00:49:58.815Z,99.99
2022-11-17T00:50:58.846Z,99.99
2022-11-17T00:51:58.774Z,99.99
2022-11-17T00:52:58.743Z,99.99
2022-11-17T00:53:58.763Z,99.99
2022-11-17T00:54:58.974Z,99.99
2022-11-17T00:55:58.773Z,99.99
2022-11-17T00:56:59.123Z,99.99
2022-11-17T00:57:58.694Z,99.99
2022-11-17T00:58:58.678Z,99.99
2022-11-17T00:59:58.691Z,99.99
2022-11-17T01:00:58.658Z,99.99
2022-11-17T01:01:58.718Z,99.99
2022-11-17T01:02:58.647Z,99.99
2022-11-17T01:03:58.611Z,99.99
2022-11-17T01:04:58.653Z,99.99
2022-11-17T01:05:58.618Z,99.99
2022-11-17T01:06:58.709Z,99.99
2022-11-17T01:07:58.594Z,99.99
2022-11-17T01:08:58.569Z,99.99
2022-11-17T01:09:58.629Z,99.99
2022-11-17T01:10:58.567Z,99.99
2022-11-17T01:11:58.543Z,99.99
2022-11-17T01:12:58.529Z,99.99
2022-11-17T01:13:58.527Z,99.99
2022-11-17T01:14:58.504Z,99.99
2022-11-17T01:15:58.517Z,99.99
2022-11-17T01:16:58.483Z,99.99
2022-11-17T01:17:58.482Z,99.99
2022-11-17T01:18:58.447Z,99.99
2022-11-17T01:19:58.493Z,99.99
2022-11-17T01:20:58.437Z,99.99
2022-11-17T01:21:58.463Z,99.99
2022-11-17T01:22:58.423Z,99.99
2022-11-17T01:23:58.437Z,99.99
2022-11-17T01:24:58.419Z,99.99
2022-11-17T01:25:58.407Z,99.99
2022-11-17T01:26:58.444Z,99.99
2022-11-17T01:27:58.370Z,99.99
2022-11-17T01:28:58.367Z,99.99
2022-11-17T01:29:58.376Z,99.99
2022-11-17T01:30:58.344Z,99.99
2022-11-17T01:31:58.337Z,99.99
2022-11-17T01:32:58.376Z,99.99
2022-11-17T01:33:58.300Z,99.99
2022-11-17T01:34:58.316Z,99.99
2022-11-17T01:35:58.278Z,99.99
2022-11-17T01:36:58.271Z,99.99
2022-11-17T01:37:58.291Z,99.99
2022-11-17T01:38:58.295Z,99.99
2022-11-17T01:39:58.246Z,99.99
2022-11-17T01:40:58.226Z,99.99
2022-11-17T01:41:58.249Z,99.99
2022-11-17T01:42:58.218Z,99.99
2022-11-17T01:43:58.226Z,99.99
2022-11-17T01:44:58.209Z,99.99
2022-11-17T01:45:58.186Z,99.99
2022-11-17T01:47:00.943Z,99.99
2022-11-17T01:47:58.155Z,99.99
2022-11-17T01:48:58.148Z,99.99
2022-11-17T01:49:58.141Z,99.99
2022-11-17T01:50:58.147Z,99.99
2022-11-17T01:51:58.101Z,99.99
2022-11-17T01:52:58.161Z,99.99
2022-11-17T01:53:58.121Z,99.99
2022-11-17T01:54:58.074Z,99.99
2022-11-17T01:55:58.053Z,99.99
2022-11-17T01:56:58.078Z,99.99
2022-11-17T01:57:58.045Z,99.99
2022-11-17T01:58:58.023Z,99.99
2022-11-17T01:59:58.016Z,99.99
2022-11-17T02:00:58.027Z,99.99
2022-11-17T02:01:58.094Z,99.99
2022-11-17T02:02:58.017Z,99.99
2022-11-17T02:03:57.993Z,99.99
2022-11-17T02:04:57.970Z,99.99
2022-11-17T02:05:57.965Z,99.99
2022-11-17T02:06:57.969Z,99.99
2022-11-17T02:07:58.017Z,99.99
2022-11-17T02:08:57.947Z,99.99
2022-11-17T02:09:57.908Z,99.99
2022-11-17T02:10:57.898Z,99.99
2022-11-17T02:11:57.900Z,99.99
2022-11-17T02:12:57.877Z,99.99
2022-11-17T02:13:57.895Z,99.99
2022-11-17T02:14:57.872Z,99.99
2022-11-17T02:15:57.846Z,99.99
2022-11-17T02:17:02.606Z,99.99
2022-11-17T02:17:57.845Z,99.99
2022-11-17T02:18:57.805Z,99.99
2022-11-17T02:19:57.819Z,99.99
2022-11-17T02:20:57.791Z,99.99
2022-11-17T02:21:57.791Z,99.99
2022-11-17T02:22:57.779Z,99.99
2022-11-17T02:23:57.756Z,99.99
2022-11-17T02:24:57.777Z,99.99
2022-11-17T02:25:57.753Z,99.99
2022-11-17T02:26:57.756Z,99.99
2022-11-17T02:27:57.745Z,99.99
2022-11-17T02:28:57.713Z,99.99
2022-11-17T02:29:57.692Z,99.99
2022-11-17T02:30:57.684Z,99.99
2022-11-17T02:31:57.682Z,99.99
2022-11-17T02:32:57.691Z,99.99
2022-11-17T02:33:57.664Z,99.99
2022-11-17T02:34:57.643Z,99.99
2022-11-17T02:35:57.636Z,99.99
2022-11-17T02:36:57.616Z,99.99
2022-11-17T02:37:57.638Z,99.99
2022-11-17T02:38:57.592Z,99.99
2022-11-17T02:39:57.585Z,99.99
2022-11-17T02:40:57.568Z,99.99
2022-11-17T02:41:57.580Z,99.99
2022-11-17T02:42:57.555Z,99.99
2022-11-17T02:43:57.566Z,99.99
2022-11-17T02:44:57.542Z,99.99
2022-11-17T02:45:57.508Z,99.99
2022-11-17T02:46:57.512Z,99.99
2022-11-17T02:47:57.486Z,99.99
2022-11-17T02:48:57.552Z,99.99
2022-11-17T02:49:57.484Z,99.99
2022-11-17T02:50:57.459Z,99.99
2022-11-17T02:51:57.458Z,99.99
2022-11-17T02:52:57.455Z,99.99
2022-11-17T02:53:57.446Z,99.99
2022-11-17T02:54:57.440Z,99.99
2022-11-17T02:55:57.417Z,99.99
2022-11-17T02:56:57.407Z,99.99
2022-11-17T02:57:57.401Z,99.99
2022-11-17T02:58:57.380Z,99.99
2022-11-17T02:59:57.396Z,99.99
2022-11-17T03:00:57.345Z,99.99
2022-11-17T03:01:57.395Z,99.99
2022-11-17T03:02:57.335Z,99.99
2022-11-17T03:03:57.360Z,99.99
2022-11-17T03:04:57.309Z,99.99
2022-11-17T03:05:57.297Z,99.99
2022-11-17T03:06:57.358Z,99.99
2022-11-17T03:07:57.279Z,99.99
2022-11-17T03:08:57.265Z,99.99
2022-11-17T03:09:57.298Z,99.99
2022-11-17T03:10:57.257Z,99.99
2022-11-17T03:11:57.286Z,99.99
2022-11-17T03:12:57.220Z,99.99
2022-11-17T03:13:57.264Z,99.99
2022-11-17T03:14:57.237Z,99.99
2022-11-17T03:15:57.190Z,99.99
2022-11-17T03:16:57.203Z,99.99
2022-11-17T03:17:57.175Z,99.99
2022-11-17T03:18:57.174Z,99.99
2022-11-17T03:19:57.176Z,99.99
2022-11-17T03:20:57.155Z,99.99
2022-11-17T03:21:57.134Z,99.99
2022-11-17T03:22:57.135Z,99.99
2022-11-17T03:23:57.109Z,99.99
2022-11-17T03:24:57.097Z,99.99
2022-11-17T03:25:57.099Z,99.99
2022-11-17T03:26:57.080Z,99.99
2022-11-17T03:27:57.045Z,99.99
2022-11-17T03:28:57.052Z,99.99
2022-11-17T03:29:57.038Z,99.99
2022-11-17T03:30:57.055Z,99.99
2022-11-17T03:31:57.012Z,99.99
2022-11-17T03:32:57.015Z,99.99
2022-11-17T03:33:56.992Z,99.99
2022-11-17T03:34:56.995Z,99.99
2022-11-17T03:35:56.994Z,99.99
2022-11-17T03:36:56.950Z,99.99
2022-11-17T03:37:56.979Z,99.99
2022-11-17T03:38:56.967Z,99.99
2022-11-17T03:39:56.937Z,99.99
2022-11-17T03:40:56.927Z,99.99
2022-11-17T03:41:56.905Z,99.99
2022-11-17T03:42:56.897Z,99.99
2022-11-17T03:43:56.880Z,99.99
2022-11-17T03:44:56.931Z,99.99
2022-11-17T03:45:56.913Z,99.99
2022-11-17T03:46:56.874Z,99.99
2022-11-17T03:48:07.488Z,99.99
2022-11-17T03:48:56.838Z,99.99
2022-11-17T03:49:56.821Z,99.99
2022-11-17T03:50:56.843Z,99.99
2022-11-17T03:51:56.795Z,99.99
2022-11-17T03:52:56.795Z,99.99
2022-11-17T03:53:56.776Z,99.99
2022-11-17T03:54:56.770Z,99.99
2022-11-17T03:55:56.766Z,99.99
2022-11-17T03:56:56.746Z,99.99
2022-11-17T03:57:56.736Z,99.99
2022-11-17T03:58:56.738Z,99.99
2022-11-17T03:59:56.717Z,99.99
2022-11-17T04:00:56.713Z,99.99
2022-11-17T04:01:56.828Z,99.99
2022-11-17T04:02:56.763Z,99.99
2022-11-17T04:03:56.660Z,99.99
2022-11-17T04:04:56.669Z,99.99
2022-11-17T04:05:56.642Z,99.99
2022-11-17T04:06:56.665Z,99.99
2022-11-17T04:07:56.608Z,99.97
2022-11-17T04:08:56.630Z,99.99
2022-11-17T04:09:56.603Z,99.99
2022-11-17T04:10:56.599Z,99.99
2022-11-17T04:11:56.614Z,99.99
2022-11-17T04:12:56.560Z,99.99
2022-11-17T04:13:56.553Z,99.99
2022-11-17T04:14:56.554Z,99.99
2022-11-17T04:15:56.527Z,99.99
2022-11-17T04:16:56.557Z,99.99
2022-11-17T04:17:56.524Z,99.99
2022-11-17T04:18:58.893Z,99.99
2022-11-17T04:19:56.497Z,99.99
2022-11-17T04:20:56.490Z,99.99
2022-11-17T04:21:56.482Z,99.99
2022-11-17T04:22:56.482Z,99.99
2022-11-17T04:23:56.462Z,99.99
2022-11-17T04:24:56.447Z,99.99
2022-11-17T04:25:56.436Z,99.99
2022-11-17T04:26:56.420Z,99.99
2022-11-17T04:27:56.404Z,99.99
2022-11-17T04:28:56.467Z,99.99
2022-11-17T04:29:56.397Z,99.99
2022-11-17T04:30:56.402Z,99.99
2022-11-17T04:31:56.374Z,99.99
2022-11-17T04:32:56.385Z,99.99
2022-11-17T04:33:56.375Z,99.99
2022-11-17T04:34:56.356Z,99.99
2022-11-17T04:35:56.326Z,99.99
2022-11-17T04:36:56.314Z,99.99
2022-11-17T04:37:56.308Z,99.99
2022-11-17T04:38:56.311Z,99.99
2022-11-17T04:39:56.293Z,99.99
2022-11-17T04:40:56.276Z,99.99
2022-11-17T04:41:56.276Z,99.99
2022-11-17T04:42:56.251Z,99.99
2022-11-17T04:43:56.272Z,99.99
2022-11-17T04:44:56.252Z,99.99
2022-11-17T04:45:56.224Z,99.99
2022-11-17T04:46:56.195Z,99.99
2022-11-17T04:47:56.177Z,99.99
2022-11-17T04:48:56.243Z,99.99
2022-11-17T04:49:56.203Z,99.99
2022-11-17T04:50:56.178Z,99.99
2022-11-17T04:51:56.168Z,99.99
2022-11-17T04:52:56.162Z,99.99
2022-11-17T04:53:56.140Z,99.99
2022-11-17T04:54:56.123Z,99.99
2022-11-17T04:55:56.130Z,99.99
2022-11-17T04:56:56.092Z,99.99
2022-11-17T04:57:56.082Z,99.99
2022-11-17T04:58:56.073Z,99.99
2022-11-17T04:59:56.059Z,99.99
2022-11-17T05:00:56.092Z,99.99
2022-11-17T05:01:59.828Z,99.99
2022-11-17T05:02:56.050Z,99.99
2022-11-17T05:03:56.035Z,99.99
2022-11-17T05:04:56.014Z,99.99
2022-11-17T05:05:56.010Z,99.99
2022-11-17T05:06:56.068Z,99.99
2022-11-17T05:07:55.978Z,99.99
2022-11-17T05:08:55.968Z,99.99
2022-11-17T05:09:55.996Z,99.99
2022-11-17T05:10:55.976Z,99.99
2022-11-17T05:11:55.925Z,99.99
2022-11-17T05:12:55.932Z,99.99
2022-11-17T05:13:55.931Z,99.99
2022-11-17T05:14:55.911Z,99.99
2022-11-17T05:15:55.881Z,99.99
2022-11-17T05:16:55.951Z,99.99
2022-11-17T05:17:55.920Z,99.99
2022-11-17T05:18:55.863Z,99.99
2022-11-17T05:19:55.898Z,99.99
2022-11-17T05:20:55.836Z,99.99
2022-11-17T05:21:55.838Z,99.99
2022-11-17T05:22:55.846Z,99.99
2022-11-17T05:23:55.825Z,99.99
2022-11-17T05:24:55.809Z,99.99
2022-11-17T05:25:55.790Z,99.99
2022-11-17T05:26:55.783Z,99.99
2022-11-17T05:27:55.776Z,99.99
2022-11-17T05:28:55.752Z,99.99
2022-11-17T05:29:55.773Z,99.99
2022-11-17T05:30:55.750Z,99.99
2022-11-17T05:31:55.731Z,99.99
2022-11-17T05:32:55.725Z,99.99
2022-11-17T05:33:55.719Z,99.99
2022-11-17T05:34:55.756Z,99.99
2022-11-17T05:35:55.699Z,99.99
2022-11-17T05:36:55.658Z,99.99
2022-11-17T05:37:55.655Z,99.99
2022-11-17T05:38:55.665Z,99.99
2022-11-17T05:39:55.624Z,99.99
2022-11-17T05:40:55.640Z,99.99
2022-11-17T05:41:55.630Z,99.99
2022-11-17T05:42:57.161Z,99.99
2022-11-17T05:43:55.586Z,99.99
2022-11-17T05:44:55.585Z,99.99
2022-11-17T05:45:55.620Z,99.99
2022-11-17T05:46:55.601Z,99.99
2022-11-17T05:47:55.539Z,99.99
2022-11-17T05:48:55.535Z,99.99
2022-11-17T05:49:55.532Z,99.99
2022-11-17T05:50:55.515Z,99.99
2022-11-17T05:51:55.504Z,99.99
2022-11-17T05:52:55.511Z,99.99
2022-11-17T05:53:55.498Z,99.99
2022-11-17T05:54:55.486Z,99.99
2022-11-17T05:55:55.457Z,99.99
2022-11-17T05:56:55.475Z,99.99
2022-11-17T05:57:57.790Z,99.99
2022-11-17T05:58:55.458Z,99.99
2022-11-17T05:59:55.494Z,99.99
2022-11-17T06:00:55.414Z,99.99
2022-11-17T06:01:55.397Z,99.99
2022-11-17T06:02:55.377Z,99.99
2022-11-17T06:03:55.434Z,99.99
2022-11-17T06:04:55.366Z,99.99
2022-11-17T06:05:55.388Z,99.99
2022-11-17T06:06:55.416Z,99.99
2022-11-17T06:07:55.369Z,99.99
2022-11-17T06:08:55.338Z,99.99
2022-11-17T06:09:55.309Z,99.99
2022-11-17T06:10:55.303Z,99.99
2022-11-17T06:11:56.193Z,99.99
2022-11-17T06:12:55.281Z,99.99
2022-11-17T06:13:55.278Z,99.99
2022-11-17T06:14:55.288Z,99.99
2022-11-17T06:15:55.238Z,99.99
2022-11-17T06:16:55.258Z,99.99
2022-11-17T06:17:55.258Z,99.82
2022-11-17T06:18:55.211Z,99.71
2022-11-17T06:19:55.184Z,99.65
2022-11-17T06:20:55.195Z,99.54
2022-11-17T06:22:11.773Z,99.22
2022-11-17T06:22:55.216Z,99.44
2022-11-17T06:23:55.163Z,99.44
2022-11-17T06:24:55.157Z,99.44
2022-11-17T06:25:55.149Z,99.44
2022-11-17T06:26:55.148Z,99.33
2022-11-17T06:27:55.261Z,99.05
2022-11-17T06:28:55.451Z,98.74
2022-11-17T06:29:55.082Z,98.74
2022-11-17T06:30:55.087Z,98.95
2022-11-17T06:31:55.078Z,98.85
2022-11-17T06:32:55.075Z,98.95
2022-11-17T06:33:55.067Z,99.05
2022-11-17T06:34:56.350Z,99.16
2022-11-17T06:35:55.028Z,98.99
2022-11-17T06:36:55.019Z,98.99
2022-11-17T06:37:56.578Z,98.78
2022-11-17T06:38:55.005Z,98.57
2022-11-17T06:39:54.984Z,98.57
2022-11-17T06:40:54.986Z,98.78
2022-11-17T06:41:54.951Z,98.99
2022-11-17T06:42:55.030Z,98.99
2022-11-17T06:43:54.966Z,98.99
2022-11-17T06:44:54.940Z,98.89
2022-11-17T06:45:54.916Z,98.83
2022-11-17T06:46:54.977Z,98.83
2022-11-17T06:47:54.886Z,99.04
2022-11-17T06:48:54.985Z,99.04
2022-11-17T06:49:54.887Z,98.93
2022-11-17T06:50:54.866Z,99.15
2022-11-17T06:51:54.861Z,99.10
2022-11-17T06:52:54.895Z,98.99
2022-11-17T06:53:54.872Z,99.10
2022-11-17T06:54:54.814Z,98.78
2022-11-17T06:55:54.831Z,98.68
2022-11-17T06:56:54.806Z,98.68
2022-11-17T06:57:54.797Z,98.78
2022-11-17T06:58:54.836Z,98.89
2022-11-17T06:59:54.776Z,99.10
2022-11-17T07:00:54.781Z,99.10
2022-11-17T07:01:54.771Z,99.10
2022-11-17T07:02:54.747Z,98.78
2022-11-17T07:03:54.756Z,98.78
2022-11-17T07:04:54.714Z,99.10
2022-11-17T07:05:54.721Z,99.32
2022-11-17T07:06:54.727Z,99.32
2022-11-17T07:07:54.712Z,99.42
2022-11-17T07:08:54.670Z,99.69
2022-11-17T07:09:54.664Z,99.38
2022-11-17T07:10:54.673Z,99.27
2022-11-17T07:11:54.638Z,98.95
2022-11-17T07:12:54.647Z,98.85
2022-11-17T07:13:54.619Z,98.74
2022-11-17T07:14:54.636Z,98.63
2022-11-17T07:15:54.622Z,99.16
2022-11-17T07:16:54.583Z,99.38
2022-11-17T07:17:54.583Z,99.38
2022-11-17T07:18:54.576Z,99.38
2022-11-17T07:19:54.566Z,99.48
2022-11-17T07:20:54.598Z,99.58
2022-11-17T07:21:54.548Z,99.48
2022-11-17T07:22:54.543Z,99.58
2022-11-17T07:23:54.520Z,99.48
2022-11-17T07:24:54.517Z,98.95
2022-11-17T07:25:54.545Z,98.42
2022-11-17T07:26:54.484Z,98.63
2022-11-17T07:27:54.529Z,98.95
2022-11-17T07:28:54.477Z,99.38
2022-11-17T07:29:54.464Z,99.69
2022-11-17T07:30:54.454Z,99.38
2022-11-17T07:31:54.465Z,99.48
2022-11-17T07:32:54.952Z,99.27
2022-11-17T07:33:54.425Z,99.16
2022-11-17T07:34:54.399Z,98.91
2022-11-17T07:35:54.384Z,99.33
2022-11-17T07:36:54.425Z,99.44
2022-11-17T07:37:54.356Z,99.12
2022-11-17T07:38:54.348Z,98.59
2022-11-17T07:39:54.354Z,98.59
2022-11-17T07:40:54.367Z,98.27
2022-11-17T07:41:54.351Z,98.05
2022-11-17T07:42:54.353Z,97.95
2022-11-17T07:43:54.299Z,97.74
2022-11-17T07:44:54.295Z,97.99
2022-11-17T07:45:54.311Z,98.16
2022-11-17T07:46:54.312Z,97.85
2022-11-17T07:47:54.294Z,97.67
2022-11-17T07:48:54.245Z,97.67
2022-11-17T07:49:54.240Z,97.57
2022-11-17T07:50:54.244Z,97.67
2022-11-17T07:51:54.209Z,97.89
2022-11-17T07:52:54.217Z,98.10
2022-11-17T07:53:54.216Z,98.42
2022-11-17T07:54:54.197Z,98.42
2022-11-17T07:55:54.220Z,98.52
2022-11-17T07:56:54.157Z,98.52
2022-11-17T07:57:54.169Z,98.42
2022-11-17T07:58:54.171Z,98.63
2022-11-17T07:59:54.132Z,98.74
2022-11-17T08:00:54.200Z,99.05
2022-11-17T08:01:54.157Z,98.85
2022-11-17T08:02:54.095Z,99.05
2022-11-17T08:03:54.095Z,99.16
2022-11-17T08:04:54.072Z,99.05
2022-11-17T08:05:54.067Z,99.16
2022-11-17T08:06:54.101Z,99.27
2022-11-17T08:07:54.069Z,99.48
2022-11-17T08:08:54.019Z,99.48
2022-11-17T08:09:54.046Z,99.44
2022-11-17T08:10:54.015Z,99.54
2022-11-17T08:11:54.033Z,99.33
2022-11-17T08:12:54.005Z,99.22
2022-11-17T08:13:53.987Z,98.80
2022-11-17T08:14:54.009Z,98.38
2022-11-17T08:15:53.965Z,98.27
2022-11-17T08:16:53.978Z,98.16
2022-11-17T08:17:53.936Z,98.27
2022-11-17T08:18:53.929Z,98.05
2022-11-17T08:19:53.974Z,97.63
2022-11-17T08:20:53.899Z,97.74
2022-11-17T08:21:53.884Z,97.89
2022-11-17T08:22:53.872Z,97.89
2022-11-17T08:23:53.950Z,98.21
2022-11-17T08:24:53.860Z,98.52
2022-11-17T08:25:53.855Z,98.32
2022-11-17T08:26:53.879Z,98.38
2022-11-17T08:27:53.845Z,98.69
2022-11-17T08:28:58.342Z,98.80
2022-11-17T08:31:09.150Z,98.91
2022-11-17T08:32:10.132Z,99.12
2022-11-17T08:33:10.129Z,99.01
2022-11-17T08:34:10.137Z,99.12
2022-11-17T08:35:10.101Z,99.22
2022-11-17T08:36:10.109Z,99.22
2022-11-17T08:37:10.109Z,99.22
2022-11-17T08:38:10.066Z,99.12
2022-11-17T08:39:10.100Z,99.33
2022-11-17T08:40:10.046Z,99.33
2022-11-17T08:41:10.026Z,99.65
2022-11-17T08:42:10.073Z,99.65
2022-11-17T08:43:10.024Z,99.97
2022-11-17T08:44:10.035Z,99.99
2022-11-17T08:45:10.012Z,99.99
2022-11-17T08:46:09.988Z,99.99
2022-11-17T08:47:10.014Z,99.99
2022-11-17T08:48:09.965Z,99.99
2022-11-17T08:49:09.950Z,99.99
2022-11-17T08:50:09.941Z,99.99
2022-11-17T08:51:09.953Z,99.99
2022-11-17T08:52:09.925Z,99.99
2022-11-17T08:53:09.896Z,99.99
2022-11-17T08:54:09.889Z,99.99
2022-11-17T08:55:09.912Z,99.99
2022-11-17T08:56:09.883Z,99.99
2022-11-17T08:57:09.927Z,99.99
2022-11-17T08:58:09.836Z,99.99
2022-11-17T08:59:09.842Z,99.99
2022-11-17T09:00:09.827Z,99.99
2022-11-17T09:01:09.920Z,99.99
2022-11-17T09:02:09.837Z,99.99
2022-11-17T09:03:09.804Z,99.99
2022-11-17T09:04:09.834Z,99.99
2022-11-17T09:05:10.549Z,99.99
2022-11-17T09:06:09.772Z,99.99
2022-11-17T09:07:09.852Z,99.99
2022-11-17T09:08:43.557Z,99.99
2022-11-17T09:09:09.846Z,99.99
2022-11-17T09:10:09.885Z,99.99
2022-11-17T09:11:09.801Z,99.99
2022-11-17T09:12:09.711Z,99.99
2022-11-17T09:13:09.672Z,99.99
2022-11-17T09:14:09.672Z,99.99
2022-11-17T09:15:09.664Z,99.99
2022-11-17T09:16:09.683Z,99.82
2022-11-17T09:17:09.639Z,99.92
2022-11-17T09:18:09.649Z,99.92
2022-11-17T09:19:09.627Z,99.99
2022-11-17T09:20:09.624Z,99.82
2022-11-17T09:21:09.628Z,99.66
2022-11-17T09:22:09.586Z,99.46
2022-11-17T09:23:09.632Z,99.24
2022-11-17T09:24:09.573Z,99.39
2022-11-17T09:25:13.310Z,98.97
2022-11-17T09:26:09.536Z,99.18
2022-11-17T09:27:09.535Z,99.50
2022-11-17T09:28:09.523Z,99.56
2022-11-17T09:29:09.546Z,99.46
2022-11-17T09:30:09.505Z,99.24
2022-11-17T09:31:09.539Z,98.60
2022-11-17T09:32:09.720Z,98.28
2022-11-17T09:33:09.485Z,98.28
2022-11-17T09:34:09.523Z,98.39
2022-11-17T09:35:09.520Z,98.39
2022-11-17T09:36:09.531Z,98.28
2022-11-17T09:37:09.433Z,98.07
2022-11-17T09:38:09.424Z,98.39
2022-11-17T09:39:09.406Z,98.82
2022-11-17T09:40:09.403Z,98.60
2022-11-17T09:41:09.433Z,98.71
2022-11-17T09:42:09.379Z,99.03
2022-11-17T09:43:09.364Z,99.19
2022-11-17T09:44:09.356Z,99.19
2022-11-17T09:45:09.365Z,98.99
2022-11-17T09:46:09.363Z,98.99
2022-11-17T09:47:09.307Z,99.05
2022-11-17T09:48:39.088Z,99.15
2022-11-17T09:49:09.317Z,98.94
2022-11-17T09:50:09.320Z,98.94
2022-11-17T09:51:09.263Z,98.94
2022-11-17T09:52:09.285Z,98.62
2022-11-17T09:53:09.257Z,98.52
2022-11-17T09:54:09.254Z,98.52
2022-11-17T09:55:09.274Z,98.30
2022-11-17T09:56:09.222Z,98.09
2022-11-17T09:57:09.214Z,98.09
2022-11-17T09:58:09.190Z,98.52
2022-11-17T09:59:09.184Z,98.94
2022-11-17T10:00:09.170Z,98.94
2022-11-17T10:01:09.232Z,98.83
2022-11-17T10:02:09.316Z,98.94
2022-11-17T10:03:09.147Z,98.94
2022-11-17T10:04:09.135Z,98.83
2022-11-17T10:05:09.117Z,98.79
2022-11-17T10:06:09.116Z,99.21
2022-11-17T10:07:09.161Z,99.74
2022-11-17T10:08:09.106Z,99.64
2022-11-17T10:09:09.076Z,99.53
2022-11-17T10:10:09.953Z,99.27
2022-11-17T10:11:09.055Z,99.07
2022-11-17T10:12:09.042Z,98.58
2022-11-17T10:13:09.046Z,99.00
2022-11-17T10:14:09.052Z,99.32
2022-11-17T10:15:09.021Z,99.74
2022-11-17T10:16:09.038Z,99.64
2022-11-17T10:17:09.001Z,99.64
2022-11-17T10:18:08.982Z,99.64
2022-11-17T10:19:09.005Z,99.43
2022-11-17T10:20:08.986Z,99.43
2022-11-17T10:21:08.986Z,99.38
2022-11-17T10:22:08.938Z,99.43
2022-11-17T10:23:08.928Z,99.21
2022-11-17T10:24:08.933Z,99.32
2022-11-17T10:25:08.907Z,99.38
2022-11-17T10:26:08.895Z,99.70
2022-11-17T10:27:08.916Z,99.80
2022-11-17T10:28:08.890Z,99.38
2022-11-17T10:29:09.400Z,98.64
2022-11-17T10:30:08.850Z,98.16
2022-11-17T10:31:08.857Z,98.26
2022-11-17T10:32:08.853Z,98.58
2022-11-17T10:33:08.847Z,99.32
2022-11-17T10:34:08.823Z,99.96
2022-11-17T10:35:08.795Z,99.99
2022-11-17T10:36:08.797Z,99.99
2022-11-17T10:37:08.847Z,99.99
2022-11-17T10:38:08.765Z,99.99
2022-11-17T10:39:17.511Z,99.96
2022-11-17T10:40:08.756Z,99.96
2022-11-17T10:41:08.744Z,99.99
2022-11-17T10:42:08.740Z,99.99
2022-11-17T10:43:08.741Z,99.96
2022-11-17T10:44:08.693Z,99.64
2022-11-17T10:45:08.696Z,99.79
2022-11-17T10:46:08.707Z,99.96
2022-11-17T10:47:08.782Z,99.64
2022-11-17T10:48:08.708Z,99.43
2022-11-17T10:49:08.657Z,99.53
2022-11-17T10:50:08.659Z,99.26
2022-11-17T10:51:08.693Z,99.15
2022-11-17T10:52:08.637Z,99.15
2022-11-17T10:53:12.608Z,99.15
2022-11-17T10:54:08.603Z,99.41
2022-11-17T10:55:08.595Z,99.52
2022-11-17T10:56:08.577Z,99.94
2022-11-17T10:57:08.580Z,99.94
2022-11-17T10:58:08.599Z,99.99
2022-11-17T10:59:08.534Z,99.99
2022-11-17T11:00:08.517Z,99.99
2022-11-17T11:01:08.608Z,99.99
2022-11-17T11:02:08.525Z,99.99
2022-11-17T11:03:08.501Z,99.84
2022-11-17T11:04:08.505Z,99.62
2022-11-17T11:05:08.473Z,99.79
2022-11-17T11:06:11.861Z,99.99
2022-11-17T11:07:08.546Z,99.99
2022-11-17T11:08:08.443Z,99.99
2022-11-17T11:09:08.457Z,99.52
2022-11-17T11:10:08.437Z,99.09
2022-11-17T11:11:08.417Z,99.62
2022-11-17T11:12:08.476Z,99.94
2022-11-17T11:13:08.393Z,99.99
2022-11-17T11:14:08.407Z,99.62
2022-11-17T11:15:08.404Z,99.30
2022-11-17T11:16:08.369Z,99.15
2022-11-17T11:17:08.347Z,98.83
2022-11-17T11:18:08.355Z,98.35
2022-11-17T11:19:08.781Z,98.24
2022-11-17T11:20:08.314Z,98.14
2022-11-17T11:21:08.321Z,97.81
2022-11-17T11:22:08.319Z,96.97
2022-11-17T11:23:08.280Z,96.55
2022-11-17T11:24:08.267Z,97.08
2022-11-17T11:25:08.285Z,97.50
2022-11-17T11:26:08.258Z,97.71
2022-11-17T11:27:08.229Z,97.44
2022-11-17T11:28:08.239Z,97.54
2022-11-17T11:29:08.586Z,97.54
2022-11-17T11:30:08.212Z,97.50
2022-11-17T11:31:08.233Z,97.50
2022-11-17T11:32:08.185Z,97.50
2022-11-17T11:33:08.175Z,96.97
2022-11-17T11:34:08.163Z,96.55
2022-11-17T11:35:13.247Z,96.06
2022-11-17T11:36:08.173Z,96.16
2022-11-17T11:37:08.142Z,96.27
2022-11-17T11:38:08.134Z,96.27
2022-11-17T11:39:08.643Z,96.37
2022-11-17T11:40:08.121Z,95.95
2022-11-17T11:41:08.130Z,95.74
2022-11-17T11:42:08.497Z,95.74
2022-11-17T11:43:08.082Z,96.06
2022-11-17T11:44:08.040Z,96.48
2022-11-17T11:45:08.034Z,96.48
2022-11-17T11:46:08.106Z,96.63
2022-11-17T11:47:08.019Z,96.80
2022-11-17T11:48:08.026Z,96.59
2022-11-17T11:49:08.297Z,96.48
2022-11-17T11:50:07.979Z,96.59
2022-11-17T11:51:08.005Z,96.91
2022-11-17T11:52:07.986Z,96.91
2022-11-17T11:53:07.953Z,96.91
2022-11-17T11:54:08.104Z,97.12
2022-11-17T11:55:07.944Z,97.33
2022-11-17T11:56:07.908Z,97.33
2022-11-17T11:57:07.934Z,97.54
2022-11-17T11:58:07.898Z,97.65
2022-11-17T11:59:07.895Z,97.69
2022-11-17T12:00:07.892Z,97.75
2022-11-17T12:01:07.911Z,97.75
2022-11-17T12:02:07.990Z,97.65
2022-11-17T12:03:07.889Z,97.75
2022-11-17T12:04:07.862Z,98.07
2022-11-17T12:05:07.837Z,98.07
2022-11-17T12:06:07.835Z,98.07
2022-11-17T12:07:07.922Z,98.03
2022-11-17T12:08:10.896Z,97.81
2022-11-17T12:09:07.822Z,97.71
2022-11-17T12:10:07.803Z,97.71
2022-11-17T12:11:07.785Z,97.81
2022-11-17T12:12:07.765Z,97.92
2022-11-17T12:13:07.751Z,98.03
2022-11-17T12:14:07.732Z,98.03
2022-11-17T12:15:07.888Z,98.03
2022-11-17T12:16:07.748Z,98.03
2022-11-17T12:17:07.695Z,98.03
2022-11-17T12:18:07.708Z,98.14
2022-11-17T12:19:07.680Z,98.24
2022-11-17T12:20:10.878Z,98.14
2022-11-17T12:21:07.675Z,98.14
2022-11-17T12:22:07.648Z,98.24
2022-11-17T12:23:07.811Z,98.56
2022-11-17T12:24:07.659Z,98.56
2022-11-17T12:25:07.623Z,98.41
2022-11-17T12:26:07.596Z,98.24
2022-11-17T12:27:07.600Z,97.92
2022-11-17T12:28:07.625Z,97.71
2022-11-17T12:29:07.637Z,97.81
2022-11-17T12:30:07.581Z,97.81
2022-11-17T12:31:10.445Z,97.50
2022-11-17T12:32:07.608Z,97.29
2022-11-17T12:33:07.596Z,96.97
2022-11-17T12:34:07.577Z,96.97
2022-11-17T12:35:07.541Z,97.18
2022-11-17T12:36:07.485Z,97.29
2022-11-17T12:37:07.483Z,97.18
2022-11-17T12:38:07.463Z,97.18
2022-11-17T12:39:07.445Z,97.18
2022-11-17T12:40:07.464Z,97.33
2022-11-17T12:41:07.449Z,97.54
2022-11-17T12:42:07.458Z,97.75
2022-11-17T12:43:07.420Z,97.75
2022-11-17T12:44:07.586Z,97.81
2022-11-17T12:45:07.548Z,97.81
2022-11-17T12:46:07.552Z,97.33
2022-11-17T12:47:07.497Z,96.91
2022-11-17T12:48:32.266Z,96.91
2022-11-17T12:49:07.390Z,97.12
2022-11-17T12:50:07.320Z,97.22
2022-11-17T12:51:07.337Z,97.22
2022-11-17T12:52:07.304Z,97.02
2022-11-17T12:53:07.337Z,97.02
2022-11-17T12:54:07.368Z,97.12